Cedar Rapids, IA

7:22 PM CDT on July 01, 2015 (GMT -0500)
SW Cedar Rapids | | Change Station
CLOSE
Current Station
Personal Weather Station
Location: Cedar Rapids, IA
Elevation: 745 ft
Nearby Weather Stations

Elev 745 ft 41.97 °N, 91.68 °W | Updated 14 seconds ago

Overcast
Overcast
68.0 °F
Feels Like 68.0 °F
N
0.0
Wind Variable Wind from ENE
Gusts 1.1 mph

Today
High -- | Low -- °F
--% Chance of Precip.
Yesterday
High -- | Low -- °F
Precip. -- in
5:34 AM 8:45 PM
Full, 100% visible
Pressure 29.94 in
Visibility 10.0 miles
Clouds Overcast 10000 ft
Dew Point 56 °F
Humidity 66%
Rainfall 0.00 in
Snow Depth Not available.
UV 0 out of 12
Pollen 3.60 out of 12
Air Quality Not available.
Flu Activity Not available.
METAR KCID 012352Z 05010KT 10SM OVC100 19/14 A2994 RMK AO2 SLP138 T01940144 10228 20194 53001

More Conditions Fewer Conditions

Pressure 29.94 in
Visibility 10.0 miles
Clouds Overcast 10000 ft
Dew Point 56 °F
Humidity 66%
Rainfall 0.00 in
Snow Depth Not available.
UV 0 out of 12
Pollen 3.60 out of 12
Air Quality Not available.
Flu Activity Not available.
METAR KCID 012352Z 05010KT 10SM OVC100 19/14 A2994 RMK AO2 SLP138 T01940144 10228 20194 53001

More Conditions Fewer Conditions

10-Day Weather Forecast

×

Almanac

Astronomy

Jul. 01, 2015 Rise Set
Actual Time
Civil Twilight
Nautical Twilight
Astronomical Twilight
Moon
Length of Visible Light
Length of Day
Tomorrow will be .
, % of the Moon is Illuminated

Today's Extremes

State Highs State Lows

Community

WunderPhotos

Upload Photos

1,834,354 photos uploaded!

WunderBlogs® & News

Nearby

Air Quality

  Air Quality AQ Index Pollutant
Not available.

Snow Depth

Station Depth Elevation

Earthquake Activity

City Distance Mag. Time & Date
Minimum magnitude displayed is 2.5.

Coastal Water Temperatures

Place Temperature

Stations

Nearby Weather Stations

Station Location Temp. Windchill Dew Point Humidity Wind Precip. Elev Updated Type